sensor_id;sensor_type;location;lat;lon;timestamp;P1;durP1;ratioP1;P2;durP2;ratioP2
16387;SDS011;8303;53.446;9.988;2022-07-21T04:47:45;21.65;;;13.27;;
16387;SDS011;8303;53.446;9.988;2022-07-21T04:50:13;19.17;;;9.32;;
16387;SDS011;8303;53.446;9.988;2022-07-21T04:52:41;21.25;;;10.77;;
16387;SDS011;8303;53.446;9.988;2022-07-21T04:55:09;19.75;;;10.57;;
16387;SDS011;8303;53.446;9.988;2022-07-21T04:57:37;17.85;;;9.40;;
16387;SDS011;8303;53.446;9.988;2022-07-21T05:00:05;19.13;;;10.23;;
16387;SDS011;8303;53.446;9.988;2022-07-21T05:02:36;16.15;;;9.30;;
16387;SDS011;8303;53.446;9.988;2022-07-21T05:05:08;17.48;;;9.38;;
16387;SDS011;8303;53.446;9.988;2022-07-21T05:07:36;18.27;;;9.90;;
16387;SDS011;8303;53.446;9.988;2022-07-21T05:10:04;21.02;;;9.82;;
16387;SDS011;8303;53.446;9.988;2022-07-21T05:12:31;15.30;;;8.75;;
16387;SDS011;8303;53.446;9.988;2022-07-21T05:14:59;17.55;;;9.52;;
16387;SDS011;8303;53.446;9.988;2022-07-21T05:17:26;19.05;;;9.45;;
16387;SDS011;8303;53.446;9.988;2022-07-21T05:19:53;17.23;;;9.55;;
16387;SDS011;8303;53.446;9.988;2022-07-21T05:22:21;21.67;;;10.98;;
16387;SDS011;8303;53.446;9.988;2022-07-21T05:24:48;16.88;;;10.38;;
16387;SDS011;8303;53.446;9.988;2022-07-21T05:27:15;16.23;;;9.50;;
16387;SDS011;8303;53.446;9.988;2022-07-21T05:29:42;17.20;;;9.70;;
16387;SDS011;8303;53.446;9.988;2022-07-21T05:32:09;14.43;;;11.02;;
16387;SDS011;8303;53.446;9.988;2022-07-21T05:34:37;24.15;;;11.60;;
16387;SDS011;8303;53.446;9.988;2022-07-21T05:37:04;19.67;;;12.52;;
16387;SDS011;8303;53.446;9.988;2022-07-21T05:39:32;17.20;;;11.27;;
16387;SDS011;8303;53.446;9.988;2022-07-21T05:42:00;19.58;;;11.43;;
16387;SDS011;8303;53.446;9.988;2022-07-21T05:44:27;17.25;;;12.52;;
16387;SDS011;8303;53.446;9.988;2022-07-21T05:46:54;18.35;;;16.33;;
16387;SDS011;8303;53.446;9.988;2022-07-21T05:49:21;24.15;;;21.48;;
16387;SDS011;8303;53.446;9.988;2022-07-21T05:51:48;26.95;;;24.77;;
16387;SDS011;8303;53.446;9.988;2022-07-21T05:54:15;40.30;;;37.13;;
16387;SDS011;8303;53.446;9.988;2022-07-21T05:56:43;31.58;;;28.65;;
16387;SDS011;8303;53.446;9.988;2022-07-21T05:59:11;34.60;;;31.80;;
16387;SDS011;8303;53.446;9.988;2022-07-21T06:01:40;31.55;;;27.67;;
16387;SDS011;8303;53.446;9.988;2022-07-21T06:04:07;39.72;;;36.67;;
16387;SDS011;8303;53.446;9.988;2022-07-21T06:06:34;39.20;;;36.00;;
16387;SDS011;8303;53.446;9.988;2022-07-21T06:09:02;34.75;;;31.85;;
16387;SDS011;8303;53.446;9.988;2022-07-21T06:11:29;29.15;;;26.27;;
16387;SDS011;8303;53.446;9.988;2022-07-21T06:13:57;32.30;;;29.30;;
16387;SDS011;8303;53.446;9.988;2022-07-21T06:16:24;32.05;;;29.17;;
16387;SDS011;8303;53.446;9.988;2022-07-21T06:18:51;27.08;;;24.63;;
16387;SDS011;8303;53.446;9.988;2022-07-21T06:21:18;31.60;;;28.20;;
16387;SDS011;8303;53.446;9.988;2022-07-21T06:23:48;41.70;;;38.15;;
16387;SDS011;8303;53.446;9.988;2022-07-21T06:26:15;43.47;;;39.53;;
16387;SDS011;8303;53.446;9.988;2022-07-21T06:28:42;44.90;;;40.90;;
16387;SDS011;8303;53.446;9.988;2022-07-21T06:31:10;41.78;;;38.33;;
16387;SDS011;8303;53.446;9.988;2022-07-21T06:33:37;60.78;;;56.03;;
16387;SDS011;8303;53.446;9.988;2022-07-21T06:36:05;64.30;;;59.55;;
16387;SDS011;8303;53.446;9.988;2022-07-21T06:38:33;72.43;;;66.63;;
16387;SDS011;8303;53.446;9.988;2022-07-21T06:41:00;71.43;;;66.40;;
16387;SDS011;8303;53.446;9.988;2022-07-21T06:43:27;93.63;;;86.60;;
16387;SDS011;8303;53.446;9.988;2022-07-21T06:45:55;112.75;;;105.28;;
16387;SDS011;8303;53.446;9.988;2022-07-21T06:48:24;99.82;;;92.90;;
16387;SDS011;8303;53.446;9.988;2022-07-21T06:50:51;124.63;;;116.35;;
16387;SDS011;8303;53.446;9.988;2022-07-21T06:53:19;132.30;;;123.15;;
16387;SDS011;8303;53.446;9.988;2022-07-21T06:55:47;125.53;;;116.82;;
16387;SDS011;8303;53.446;9.988;2022-07-21T06:58:17;125.50;;;116.63;;
16387;SDS011;8303;53.446;9.988;2022-07-21T07:00:46;117.93;;;109.80;;
16387;SDS011;8303;53.446;9.988;2022-07-21T07:03:14;136.68;;;127.30;;
16387;SDS011;8303;53.446;9.988;2022-07-21T07:05:44;142.55;;;133.38;;
16387;SDS011;8303;53.446;9.988;2022-07-21T07:08:13;123.28;;;115.38;;
16387;SDS011;8303;53.446;9.988;2022-07-21T07:10:40;149.65;;;139.93;;
16387;SDS011;8303;53.446;9.988;2022-07-21T07:13:08;186.40;;;174.75;;
16387;SDS011;8303;53.446;9.988;2022-07-21T07:15:36;193.20;;;181.23;;
16387;SDS011;8303;53.446;9.988;2022-07-21T07:18:03;187.05;;;175.32;;
16387;SDS011;8303;53.446;9.988;2022-07-21T07:20:30;203.05;;;190.38;;
16387;SDS011;8303;53.446;9.988;2022-07-21T07:22:59;164.63;;;153.60;;
16387;SDS011;8303;53.446;9.988;2022-07-21T07:25:26;162.20;;;151.85;;
16387;SDS011;8303;53.446;9.988;2022-07-21T07:27:53;135.52;;;126.38;;
16387;SDS011;8303;53.446;9.988;2022-07-21T07:30:22;118.50;;;110.78;;
16387;SDS011;8303;53.446;9.988;2022-07-21T07:32:50;101.57;;;94.15;;
16387;SDS011;8303;53.446;9.988;2022-07-21T07:35:17;103.43;;;96.30;;
16387;SDS011;8303;53.446;9.988;2022-07-21T07:37:44;95.22;;;88.55;;
16387;SDS011;8303;53.446;9.988;2022-07-21T07:40:14;109.70;;;102.20;;
16387;SDS011;8303;53.446;9.988;2022-07-21T07:42:45;106.85;;;99.97;;
16387;SDS011;8303;53.446;9.988;2022-07-21T07:45:13;113.18;;;105.88;;
16387;SDS011;8303;53.446;9.988;2022-07-21T07:47:40;119.57;;;112.28;;
16387;SDS011;8303;53.446;9.988;2022-07-21T07:50:08;121.70;;;113.35;;
16387;SDS011;8303;53.446;9.988;2022-07-21T07:52:38;86.40;;;79.80;;
16387;SDS011;8303;53.446;9.988;2022-07-21T07:55:06;118.85;;;111.28;;
16387;SDS011;8303;53.446;9.988;2022-07-21T07:57:38;129.40;;;121.28;;
16387;SDS011;8303;53.446;9.988;2022-07-21T08:00:08;43.35;;;39.33;;
16387;SDS011;8303;53.446;9.988;2022-07-21T08:02:37;27.85;;;25.00;;
16387;SDS011;8303;53.446;9.988;2022-07-21T08:05:05;72.22;;;66.32;;
16387;SDS011;8303;53.446;9.988;2022-07-21T08:07:33;60.38;;;55.10;;
16387;SDS011;8303;53.446;9.988;2022-07-21T08:10:00;32.08;;;28.73;;
16387;SDS011;8303;53.446;9.988;2022-07-21T08:12:27;31.85;;;28.08;;
16387;SDS011;8303;53.446;9.988;2022-07-21T08:14:56;56.97;;;52.10;;
16387;SDS011;8303;53.446;9.988;2022-07-21T08:17:23;53.83;;;49.45;;
16387;SDS011;8303;53.446;9.988;2022-07-21T08:19:50;33.50;;;30.25;;
16387;SDS011;8303;53.446;9.988;2022-07-21T08:22:17;36.45;;;33.00;;
16387;SDS011;8303;53.446;9.988;2022-07-21T08:24:44;34.33;;;31.00;;
16387;SDS011;8303;53.446;9.988;2022-07-21T08:27:11;29.85;;;26.33;;
16387;SDS011;8303;53.446;9.988;2022-07-21T08:29:38;23.85;;;20.02;;
16387;SDS011;8303;53.446;9.988;2022-07-21T08:32:10;26.88;;;21.50;;
16387;SDS011;8303;53.446;9.988;2022-07-21T08:34:37;22.23;;;14.82;;
16387;SDS011;8303;53.446;9.988;2022-07-21T08:37:04;20.80;;;17.17;;
16387;SDS011;8303;53.446;9.988;2022-07-21T08:39:31;22.08;;;14.13;;
16387;SDS011;8303;53.446;9.988;2022-07-21T08:41:58;23.45;;;14.88;;
16387;SDS011;8303;53.446;9.988;2022-07-21T08:44:26;21.77;;;15.18;;
16387;SDS011;8303;53.446;9.988;2022-07-21T08:46:53;23.15;;;15.30;;
16387;SDS011;8303;53.446;9.988;2022-07-21T08:49:23;20.50;;;14.52;;
16387;SDS011;8303;53.446;9.988;2022-07-21T08:51:51;19.73;;;15.00;;
16387;SDS011;8303;53.446;9.988;2022-07-21T08:54:19;21.48;;;14.63;;
16387;SDS011;8303;53.446;9.988;2022-07-21T08:56:47;19.25;;;15.60;;
16387;SDS011;8303;53.446;9.988;2022-07-21T08:59:14;18.60;;;14.85;;
16387;SDS011;8303;53.446;9.988;2022-07-21T09:01:41;25.05;;;20.20;;
16387;SDS011;8303;53.446;9.988;2022-07-21T09:04:26;22.35;;;19.98;;
16387;SDS011;8303;53.446;9.988;2022-07-21T09:06:55;22.55;;;15.30;;
16387;SDS011;8303;53.446;9.988;2022-07-21T09:09:25;16.92;;;14.40;;
16387;SDS011;8303;53.446;9.988;2022-07-21T09:11:54;23.58;;;15.75;;
16387;SDS011;8303;53.446;9.988;2022-07-21T09:14:22;18.00;;;14.50;;
16387;SDS011;8303;53.446;9.988;2022-07-21T09:16:51;20.40;;;16.35;;
16387;SDS011;8303;53.446;9.988;2022-07-21T09:19:20;19.33;;;15.02;;
16387;SDS011;8303;53.446;9.988;2022-07-21T09:21:50;22.92;;;14.15;;
16387;SDS011;8303;53.446;9.988;2022-07-21T09:24:19;22.92;;;15.02;;
16387;SDS011;8303;53.446;9.988;2022-07-21T09:27:04;19.27;;;15.02;;
16387;SDS011;8303;53.446;9.988;2022-07-21T09:29:35;19.92;;;15.05;;
16387;SDS011;8303;53.446;9.988;2022-07-21T09:32:17;17.60;;;14.52;;
16387;SDS011;8303;53.446;9.988;2022-07-21T09:34:47;21.60;;;14.05;;
16387;SDS011;8303;53.446;9.988;2022-07-21T09:37:17;20.40;;;15.75;;
16387;SDS011;8303;53.446;9.988;2022-07-21T09:39:46;18.88;;;16.95;;
16387;SDS011;8303;53.446;9.988;2022-07-21T09:42:17;19.27;;;15.40;;
16387;SDS011;8303;53.446;9.988;2022-07-21T09:44:48;18.02;;;16.15;;
16387;SDS011;8303;53.446;9.988;2022-07-21T09:47:17;17.92;;;15.75;;
16387;SDS011;8303;53.446;9.988;2022-07-21T09:49:49;19.52;;;15.35;;
16387;SDS011;8303;53.446;9.988;2022-07-21T09:52:27;17.48;;;15.25;;
16387;SDS011;8303;53.446;9.988;2022-07-21T09:54:57;18.98;;;17.02;;
16387;SDS011;8303;53.446;9.988;2022-07-21T09:57:25;22.52;;;20.52;;
16387;SDS011;8303;53.446;9.988;2022-07-21T09:59:53;19.15;;;17.35;;
16387;SDS011;8303;53.446;9.988;2022-07-21T10:02:21;22.15;;;18.02;;
16387;SDS011;8303;53.446;9.988;2022-07-21T10:04:51;20.63;;;18.63;;
16387;SDS011;8303;53.446;9.988;2022-07-21T10:07:24;18.73;;;16.85;;
16387;SDS011;8303;53.446;9.988;2022-07-21T10:09:52;24.48;;;22.23;;
16387;SDS011;8303;53.446;9.988;2022-07-21T10:12:20;18.92;;;17.13;;
16387;SDS011;8303;53.446;9.988;2022-07-21T10:14:47;22.63;;;20.45;;
16387;SDS011;8303;53.446;9.988;2022-07-21T10:17:15;22.75;;;19.05;;
16387;SDS011;8303;53.446;9.988;2022-07-21T10:19:46;21.30;;;18.17;;
16387;SDS011;8303;53.446;9.988;2022-07-21T10:22:29;21.60;;;19.65;;
16387;SDS011;8303;53.446;9.988;2022-07-21T10:25:03;31.75;;;29.45;;
16387;SDS011;8303;53.446;9.988;2022-07-21T10:27:30;43.90;;;40.70;;
16387;SDS011;8303;53.446;9.988;2022-07-21T10:29:58;34.80;;;32.13;;
16387;SDS011;8303;53.446;9.988;2022-07-21T10:32:30;26.20;;;24.08;;
16387;SDS011;8303;53.446;9.988;2022-07-21T10:34:59;31.27;;;28.90;;
16387;SDS011;8303;53.446;9.988;2022-07-21T10:37:47;35.97;;;33.45;;
16387;SDS011;8303;53.446;9.988;2022-07-21T10:40:36;43.42;;;40.60;;
16387;SDS011;8303;53.446;9.988;2022-07-21T10:46:03;59.58;;;55.88;;
16387;SDS011;8303;53.446;9.988;2022-07-21T10:49:04;51.15;;;47.92;;
16387;SDS011;8303;53.446;9.988;2022-07-21T10:51:32;51.70;;;48.30;;
16387;SDS011;8303;53.446;9.988;2022-07-21T11:02:51;64.25;;;60.35;;
16387;SDS011;8303;53.446;9.988;2022-07-21T11:05:20;49.97;;;46.58;;
16387;SDS011;8303;53.446;9.988;2022-07-21T11:10:39;61.28;;;57.63;;
16387;SDS011;8303;53.446;9.988;2022-07-21T11:13:07;56.03;;;52.63;;
16387;SDS011;8303;53.446;9.988;2022-07-21T11:15:54;59.42;;;55.65;;
16387;SDS011;8303;53.446;9.988;2022-07-21T11:18:23;66.68;;;62.80;;
16387;SDS011;8303;53.446;9.988;2022-07-21T11:23:44;65.45;;;61.67;;
16387;SDS011;8303;53.446;9.988;2022-07-21T11:26:14;63.67;;;59.72;;
16387;SDS011;8303;53.446;9.988;2022-07-21T11:28:44;48.83;;;45.88;;
16387;SDS011;8303;53.446;9.988;2022-07-21T11:31:14;58.50;;;54.92;;
16387;SDS011;8303;53.446;9.988;2022-07-21T11:33:43;59.38;;;55.67;;
16387;SDS011;8303;53.446;9.988;2022-07-21T11:36:25;69.68;;;65.57;;
16387;SDS011;8303;53.446;9.988;2022-07-21T11:38:58;71.53;;;67.43;;
16387;SDS011;8303;53.446;9.988;2022-07-21T11:41:28;88.43;;;83.47;;
16387;SDS011;8303;53.446;9.988;2022-07-21T11:43:55;83.38;;;78.75;;
16387;SDS011;8303;53.446;9.988;2022-07-21T11:46:22;95.88;;;90.75;;
16387;SDS011;8303;53.446;9.988;2022-07-21T11:48:59;84.15;;;79.28;;
16387;SDS011;8303;53.446;9.988;2022-07-21T11:51:28;96.38;;;90.93;;
16387;SDS011;8303;53.446;9.988;2022-07-21T11:53:55;116.13;;;109.88;;
16387;SDS011;8303;53.446;9.988;2022-07-21T11:56:22;128.30;;;121.60;;
16387;SDS011;8303;53.446;9.988;2022-07-21T11:58:50;176.20;;;166.77;;
16387;SDS011;8303;53.446;9.988;2022-07-21T12:01:48;182.15;;;172.43;;
16387;SDS011;8303;53.446;9.988;2022-07-21T12:04:25;142.82;;;135.10;;
16387;SDS011;8303;53.446;9.988;2022-07-21T12:09:52;158.18;;;149.85;;
16387;SDS011;8303;53.446;9.988;2022-07-21T12:12:31;170.02;;;161.10;;
16387;SDS011;8303;53.446;9.988;2022-07-21T12:15:10;225.32;;;213.55;;
16387;SDS011;8303;53.446;9.988;2022-07-21T12:17:40;172.73;;;163.57;;
16387;SDS011;8303;53.446;9.988;2022-07-21T12:20:10;215.00;;;203.65;;
16387;SDS011;8303;53.446;9.988;2022-07-21T12:22:38;196.85;;;186.63;;
16387;SDS011;8303;53.446;9.988;2022-07-21T12:25:08;222.07;;;210.68;;
16387;SDS011;8303;53.446;9.988;2022-07-21T12:27:36;218.13;;;206.88;;
16387;SDS011;8303;53.446;9.988;2022-07-21T12:30:05;193.13;;;183.20;;
16387;SDS011;8303;53.446;9.988;2022-07-21T12:32:40;154.55;;;146.50;;
16387;SDS011;8303;53.446;9.988;2022-07-21T12:35:17;201.75;;;191.15;;
16387;SDS011;8303;53.446;9.988;2022-07-21T12:37:56;227.35;;;215.73;;
16387;SDS011;8303;53.446;9.988;2022-07-21T12:40:25;220.05;;;208.75;;
16387;SDS011;8303;53.446;9.988;2022-07-21T12:43:02;142.05;;;134.63;;
16387;SDS011;8303;53.446;9.988;2022-07-21T12:45:44;161.23;;;152.90;;
16387;SDS011;8303;53.446;9.988;2022-07-21T12:48:23;166.88;;;158.23;;
16387;SDS011;8303;53.446;9.988;2022-07-21T12:51:02;220.80;;;209.30;;
16387;SDS011;8303;53.446;9.988;2022-07-21T12:53:31;223.57;;;212.27;;
16387;SDS011;8303;53.446;9.988;2022-07-21T12:56:01;221.13;;;209.82;;
16387;SDS011;8303;53.446;9.988;2022-07-21T12:58:30;228.43;;;216.88;;
16387;SDS011;8303;53.446;9.988;2022-07-21T13:01:00;240.55;;;228.25;;
16387;SDS011;8303;53.446;9.988;2022-07-21T13:03:31;194.95;;;184.95;;
16387;SDS011;8303;53.446;9.988;2022-07-21T13:06:00;211.05;;;200.00;;
16387;SDS011;8303;53.446;9.988;2022-07-21T13:08:28;201.48;;;191.18;;
16387;SDS011;8303;53.446;9.988;2022-07-21T13:10:55;173.98;;;164.77;;
16387;SDS011;8303;53.446;9.988;2022-07-21T13:13:22;173.57;;;164.57;;
16387;SDS011;8303;53.446;9.988;2022-07-21T13:15:50;194.70;;;184.38;;
16387;SDS011;8303;53.446;9.988;2022-07-21T13:18:17;184.20;;;174.80;;
16387;SDS011;8303;53.446;9.988;2022-07-21T13:20:45;176.30;;;167.18;;
16387;SDS011;8303;53.446;9.988;2022-07-21T13:23:17;218.95;;;207.93;;
16387;SDS011;8303;53.446;9.988;2022-07-21T13:25:45;206.70;;;196.07;;
16387;SDS011;8303;53.446;9.988;2022-07-21T13:28:13;222.38;;;211.20;;
16387;SDS011;8303;53.446;9.988;2022-07-21T13:30:40;208.88;;;198.38;;
16387;SDS011;8303;53.446;9.988;2022-07-21T13:33:08;210.38;;;199.55;;
16387;SDS011;8303;53.446;9.988;2022-07-21T13:35:35;212.98;;;202.07;;
16387;SDS011;8303;53.446;9.988;2022-07-21T13:38:04;200.43;;;190.40;;
16387;SDS011;8303;53.446;9.988;2022-07-21T13:40:31;217.23;;;206.25;;
16387;SDS011;8303;53.446;9.988;2022-07-21T13:42:58;219.73;;;208.45;;
16387;SDS011;8303;53.446;9.988;2022-07-21T13:45:25;196.70;;;186.80;;
16387;SDS011;8303;53.446;9.988;2022-07-21T13:47:52;209.48;;;199.05;;
16387;SDS011;8303;53.446;9.988;2022-07-21T13:50:19;182.27;;;173.10;;
16387;SDS011;8303;53.446;9.988;2022-07-21T13:52:46;192.95;;;183.25;;
16387;SDS011;8303;53.446;9.988;2022-07-21T13:55:14;152.20;;;144.48;;
16387;SDS011;8303;53.446;9.988;2022-07-21T13:57:41;176.60;;;167.35;;
16387;SDS011;8303;53.446;9.988;2022-07-21T14:00:11;169.80;;;161.13;;
16387;SDS011;8303;53.446;9.988;2022-07-21T14:02:39;170.63;;;161.85;;
16387;SDS011;8303;53.446;9.988;2022-07-21T14:05:08;212.65;;;202.05;;
16387;SDS011;8303;53.446;9.988;2022-07-21T14:07:35;234.30;;;222.45;;
16387;SDS011;8303;53.446;9.988;2022-07-21T14:10:02;296.33;;;281.27;;
16387;SDS011;8303;53.446;9.988;2022-07-21T14:12:31;290.90;;;276.05;;
16387;SDS011;8303;53.446;9.988;2022-07-21T14:14:58;304.17;;;288.60;;
16387;SDS011;8303;53.446;9.988;2022-07-21T14:17:25;194.95;;;185.15;;
16387;SDS011;8303;53.446;9.988;2022-07-21T14:19:53;150.95;;;143.35;;
16387;SDS011;8303;53.446;9.988;2022-07-21T14:22:20;100.15;;;95.05;;
16387;SDS011;8303;53.446;9.988;2022-07-21T14:24:47;114.72;;;108.90;;
16387;SDS011;8303;53.446;9.988;2022-07-21T14:27:33;104.05;;;98.78;;
16387;SDS011;8303;53.446;9.988;2022-07-21T14:30:00;209.23;;;198.60;;
16387;SDS011;8303;53.446;9.988;2022-07-21T14:32:27;288.65;;;273.88;;
16387;SDS011;8303;53.446;9.988;2022-07-21T14:34:55;323.27;;;306.80;;
16387;SDS011;8303;53.446;9.988;2022-07-21T14:37:22;356.40;;;337.73;;
16387;SDS011;8303;53.446;9.988;2022-07-21T14:39:50;320.15;;;303.80;;
16387;SDS011;8303;53.446;9.988;2022-07-21T14:42:17;266.35;;;252.93;;
16387;SDS011;8303;53.446;9.988;2022-07-21T14:44:45;250.98;;;238.40;;
16387;SDS011;8303;53.446;9.988;2022-07-21T14:47:12;238.05;;;226.27;;
16387;SDS011;8303;53.446;9.988;2022-07-21T14:49:44;205.63;;;195.25;;
16387;SDS011;8303;53.446;9.988;2022-07-21T14:52:11;130.30;;;123.70;;
16387;SDS011;8303;53.446;9.988;2022-07-21T14:54:38;80.25;;;75.95;;
16387;SDS011;8303;53.446;9.988;2022-07-21T14:57:05;39.47;;;37.05;;
16387;SDS011;8303;53.446;9.988;2022-07-21T14:59:32;34.92;;;32.85;;
16387;SDS011;8303;53.446;9.988;2022-07-21T15:02:01;21.55;;;20.02;;
16387;SDS011;8303;53.446;9.988;2022-07-21T15:04:28;29.15;;;27.30;;
16387;SDS011;8303;53.446;9.988;2022-07-21T15:06:55;25.00;;;23.25;;
16387;SDS011;8303;53.446;9.988;2022-07-21T15:09:22;30.63;;;28.58;;
16387;SDS011;8303;53.446;9.988;2022-07-21T15:11:49;24.75;;;23.00;;
16387;SDS011;8303;53.446;9.988;2022-07-21T15:14:16;23.50;;;21.88;;
16387;SDS011;8303;53.446;9.988;2022-07-21T15:16:43;24.58;;;22.98;;
16387;SDS011;8303;53.446;9.988;2022-07-21T15:19:12;22.58;;;20.45;;
16387;SDS011;8303;53.446;9.988;2022-07-21T15:21:40;14.93;;;13.65;;
16387;SDS011;8303;53.446;9.988;2022-07-21T15:24:07;14.77;;;13.57;;
16387;SDS011;8303;53.446;9.988;2022-07-21T15:26:34;14.18;;;13.18;;
16387;SDS011;8303;53.446;9.988;2022-07-21T15:29:01;16.58;;;15.48;;
16387;SDS011;8303;53.446;9.988;2022-07-21T15:31:29;16.38;;;15.27;;
16387;SDS011;8303;53.446;9.988;2022-07-21T15:33:57;17.58;;;16.38;;
16387;SDS011;8303;53.446;9.988;2022-07-21T15:36:26;14.10;;;13.05;;
16387;SDS011;8303;53.446;9.988;2022-07-21T15:38:55;13.52;;;12.50;;
16387;SDS011;8303;53.446;9.988;2022-07-21T15:41:22;13.45;;;12.38;;
16387;SDS011;8303;53.446;9.988;2022-07-21T15:43:50;12.73;;;11.65;;
16387;SDS011;8303;53.446;9.988;2022-07-21T15:46:18;12.30;;;11.20;;
16387;SDS011;8303;53.446;9.988;2022-07-21T15:48:45;11.02;;;10.23;;
16387;SDS011;8303;53.446;9.988;2022-07-21T15:51:12;16.85;;;15.57;;
16387;SDS011;8303;53.446;9.988;2022-07-21T15:53:42;24.55;;;22.75;;
16387;SDS011;8303;53.446;9.988;2022-07-21T15:56:09;35.53;;;33.42;;
16387;SDS011;8303;53.446;9.988;2022-07-21T15:58:37;47.33;;;44.47;;
16387;SDS011;8303;53.446;9.988;2022-07-21T16:01:25;51.25;;;48.15;;
16387;SDS011;8303;53.446;9.988;2022-07-21T16:03:53;65.68;;;61.88;;
16387;SDS011;8303;53.446;9.988;2022-07-21T16:06:20;67.82;;;63.97;;
16387;SDS011;8303;53.446;9.988;2022-07-21T16:08:48;66.35;;;62.50;;
16387;SDS011;8303;53.446;9.988;2022-07-21T16:11:15;61.95;;;58.30;;
16387;SDS011;8303;53.446;9.988;2022-07-21T16:13:42;57.70;;;54.40;;
16387;SDS011;8303;53.446;9.988;2022-07-21T16:16:09;50.50;;;47.55;;
16387;SDS011;8303;53.446;9.988;2022-07-21T16:18:36;107.20;;;101.53;;
16387;SDS011;8303;53.446;9.988;2022-07-21T16:21:03;222.98;;;211.63;;
16387;SDS011;8303;53.446;9.988;2022-07-21T16:23:31;312.80;;;296.70;;
16387;SDS011;8303;53.446;9.988;2022-07-21T16:25:59;313.42;;;297.17;;
16387;SDS011;8303;53.446;9.988;2022-07-21T16:28:26;334.80;;;317.13;;
16387;SDS011;8303;53.446;9.988;2022-07-21T16:30:53;333.15;;;315.67;;
16387;SDS011;8303;53.446;9.988;2022-07-21T16:33:20;319.58;;;302.77;;
16387;SDS011;8303;53.446;9.988;2022-07-21T16:35:47;331.63;;;314.23;;
16387;SDS011;8303;53.446;9.988;2022-07-21T16:38:14;332.88;;;315.60;;
16387;SDS011;8303;53.446;9.988;2022-07-21T16:40:41;348.25;;;329.60;;
16387;SDS011;8303;53.446;9.988;2022-07-21T16:43:12;332.83;;;315.30;;
16387;SDS011;8303;53.446;9.988;2022-07-21T16:45:39;326.65;;;309.50;;
16387;SDS011;8303;53.446;9.988;2022-07-21T16:48:06;333.33;;;315.83;;
16387;SDS011;8303;53.446;9.988;2022-07-21T16:50:33;353.05;;;334.27;;
16387;SDS011;8303;53.446;9.988;2022-07-21T16:53:00;288.05;;;273.08;;
16387;SDS011;8303;53.446;9.988;2022-07-21T16:55:27;273.88;;;259.60;;
16387;SDS011;8303;53.446;9.988;2022-07-21T16:57:55;150.10;;;142.02;;
16387;SDS011;8303;53.446;9.988;2022-07-21T17:00:23;115.10;;;108.82;;
16387;SDS011;8303;53.446;9.988;2022-07-21T17:02:50;149.32;;;141.25;;
16387;SDS011;8303;53.446;9.988;2022-07-21T17:05:17;236.82;;;224.43;;
16387;SDS011;8303;53.446;9.988;2022-07-21T17:07:43;289.73;;;274.70;;
16387;SDS011;8303;53.446;9.988;2022-07-21T17:10:10;316.00;;;299.58;;
16387;SDS011;8303;53.446;9.988;2022-07-21T17:12:37;287.25;;;272.42;;
16387;SDS011;8303;53.446;9.988;2022-07-21T17:15:05;288.65;;;273.42;;
16387;SDS011;8303;53.446;9.988;2022-07-21T17:17:34;350.58;;;332.10;;
16387;SDS011;8303;53.446;9.988;2022-07-21T17:20:02;364.38;;;345.08;;
16387;SDS011;8303;53.446;9.988;2022-07-21T17:22:30;363.40;;;343.77;;
16387;SDS011;8303;53.446;9.988;2022-07-21T17:24:57;346.50;;;328.05;;
16387;SDS011;8303;53.446;9.988;2022-07-21T17:27:24;353.08;;;334.33;;
16387;SDS011;8303;53.446;9.988;2022-07-21T17:29:51;383.77;;;361.60;;
16387;SDS011;8303;53.446;9.988;2022-07-21T17:32:18;345.73;;;326.95;;
16387;SDS011;8303;53.446;9.988;2022-07-21T17:34:46;357.85;;;338.58;;
16387;SDS011;8303;53.446;9.988;2022-07-21T17:37:13;352.60;;;333.60;;
16387;SDS011;8303;53.446;9.988;2022-07-21T17:39:39;302.70;;;286.42;;
16387;SDS011;8303;53.446;9.988;2022-07-21T17:42:07;279.08;;;264.17;;
16387;SDS011;8303;53.446;9.988;2022-07-21T17:44:34;261.20;;;247.50;;
16387;SDS011;8303;53.446;9.988;2022-07-21T17:47:01;206.98;;;195.90;;
16387;SDS011;8303;53.446;9.988;2022-07-21T17:49:28;166.52;;;157.45;;
16387;SDS011;8303;53.446;9.988;2022-07-21T17:51:56;143.45;;;135.35;;
16387;SDS011;8303;53.446;9.988;2022-07-21T17:54:23;103.00;;;95.57;;
16387;SDS011;8303;53.446;9.988;2022-07-21T17:56:50;93.05;;;85.65;;
16387;SDS011;8303;53.446;9.988;2022-07-21T17:59:37;78.53;;;73.75;;
16387;SDS011;8303;53.446;9.988;2022-07-21T18:02:03;65.18;;;60.17;;
16387;SDS011;8303;53.446;9.988;2022-07-21T18:04:30;57.55;;;53.60;;
16387;SDS011;8303;53.446;9.988;2022-07-21T18:06:58;57.20;;;53.38;;
16387;SDS011;8303;53.446;9.988;2022-07-21T18:09:24;51.53;;;47.97;;
16387;SDS011;8303;53.446;9.988;2022-07-21T18:11:51;33.20;;;30.55;;
16387;SDS011;8303;53.446;9.988;2022-07-21T18:14:18;28.80;;;26.23;;
16387;SDS011;8303;53.446;9.988;2022-07-21T18:16:45;25.88;;;23.88;;
16387;SDS011;8303;53.446;9.988;2022-07-21T18:19:13;21.65;;;19.85;;
16387;SDS011;8303;53.446;9.988;2022-07-21T18:21:40;20.73;;;18.90;;
16387;SDS011;8303;53.446;9.988;2022-07-21T18:24:08;19.45;;;17.67;;
16387;SDS011;8303;53.446;9.988;2022-07-21T18:26:35;18.42;;;16.67;;
16387;SDS011;8303;53.446;9.988;2022-07-21T18:29:02;18.40;;;16.65;;
16387;SDS011;8303;53.446;9.988;2022-07-21T18:31:29;18.55;;;16.55;;
16387;SDS011;8303;53.446;9.988;2022-07-21T18:33:55;15.20;;;14.00;;
16387;SDS011;8303;53.446;9.988;2022-07-21T18:36:22;15.77;;;14.18;;
16387;SDS011;8303;53.446;9.988;2022-07-21T18:38:49;17.67;;;16.15;;
16387;SDS011;8303;53.446;9.988;2022-07-21T18:41:17;12.55;;;11.55;;
16387;SDS011;8303;53.446;9.988;2022-07-21T18:43:44;12.52;;;11.43;;
16387;SDS011;8303;53.446;9.988;2022-07-21T18:46:11;12.38;;;11.27;;
16387;SDS011;8303;53.446;9.988;2022-07-21T18:48:38;11.10;;;10.10;;
16387;SDS011;8303;53.446;9.988;2022-07-21T18:51:06;11.38;;;10.32;;
16387;SDS011;8303;53.446;9.988;2022-07-21T18:53:34;11.48;;;10.48;;
16387;SDS011;8303;53.446;9.988;2022-07-21T18:56:01;10.68;;;9.77;;
16387;SDS011;8303;53.446;9.988;2022-07-21T18:58:29;9.50;;;8.60;;
16387;SDS011;8303;53.446;9.988;2022-07-21T19:00:56;10.07;;;9.15;;
16387;SDS011;8303;53.446;9.988;2022-07-21T19:03:27;9.32;;;8.52;;
16387;SDS011;8303;53.446;9.988;2022-07-21T19:05:54;9.70;;;8.73;;
16387;SDS011;8303;53.446;9.988;2022-07-21T19:08:21;9.65;;;8.63;;
16387;SDS011;8303;53.446;9.988;2022-07-21T19:10:48;11.48;;;8.68;;
16387;SDS011;8303;53.446;9.988;2022-07-21T19:13:15;10.15;;;9.15;;
16387;SDS011;8303;53.446;9.988;2022-07-21T19:15:43;10.13;;;9.13;;
16387;SDS011;8303;53.446;9.988;2022-07-21T19:18:10;11.85;;;9.40;;
16387;SDS011;8303;53.446;9.988;2022-07-21T19:20:37;10.05;;;9.05;;
16387;SDS011;8303;53.446;9.988;2022-07-21T19:23:04;11.88;;;10.85;;
16387;SDS011;8303;53.446;9.988;2022-07-21T19:25:31;12.07;;;10.98;;
16387;SDS011;8303;53.446;9.988;2022-07-21T19:27:58;11.52;;;10.57;;
16387;SDS011;8303;53.446;9.988;2022-07-21T19:30:25;13.85;;;12.70;;
16387;SDS011;8303;53.446;9.988;2022-07-21T19:32:53;14.82;;;13.65;;
16387;SDS011;8303;53.446;9.988;2022-07-21T19:35:20;19.75;;;18.17;;
16387;SDS011;8303;53.446;9.988;2022-07-21T19:37:50;17.65;;;16.13;;
16387;SDS011;8303;53.446;9.988;2022-07-21T19:40:17;19.77;;;17.85;;
16387;SDS011;8303;53.446;9.988;2022-07-21T19:42:44;20.02;;;18.48;;